Time;durP1;ratioP1;P1;durP2;ratioP2;P2;SDS_P1;SDS_P2;PMS_P1;PMS_P2;Temp;Humidity;BMP_temperature;BMP_pressure;BME280_temperature;BME280_humidity;BME280_pressure;Samples;Min_cycle;Max_cycle;Signal;HPM_P1;HPM_P2
2023/04/18 00:00:22;;;;;;;11.30;5.73;;;10.20;99.90;;;;;;5029232;28;20184;-69
2023/04/18 00:02:52;;;;;;;10.17;6.00;;;10.60;99.90;;;;;;5025778;28;20201;-68
2023/04/18 00:05:18;;;;;;;11.60;5.73;;;;;;;;;;5028599;28;20319;-69
2023/04/18 00:07:44;;;;;;;8.67;5.50;;;10.10;99.90;;;;;;5026424;28;20189;-69
2023/04/18 00:10:10;;;;;;;10.57;5.37;;;10.00;99.90;;;;;;5027269;28;20640;-68
2023/04/18 00:12:36;;;;;;;7.67;5.47;;;9.80;99.90;;;;;;5027703;28;20225;-69
2023/04/18 00:15:03;;;;;;;8.87;5.80;;;9.90;99.90;;;;;;5025818;28;20182;-69
2023/04/18 00:17:30;;;;;;;9.70;5.53;;;9.60;99.90;;;;;;5028160;28;20185;-68
2023/04/18 00:19:57;;;;;;;14.23;6.17;;;9.90;99.90;;;;;;5024394;28;20701;-69
2023/04/18 00:22:24;;;;;;;9.17;6.33;;;9.60;99.90;;;;;;5028714;28;20267;-69
2023/04/18 00:24:50;;;;;;;10.37;6.37;;;8.90;99.90;;;;;;5027380;28;20186;-69
2023/04/18 00:27:20;;;;;;;10.27;6.63;;;9.70;99.90;;;;;;5028764;28;20192;-69
2023/04/18 00:29:47;;;;;;;10.20;6.50;;;9.70;99.90;;;;;;5024139;28;20183;-69
2023/04/18 00:32:13;;;;;;;12.53;6.60;;;9.40;99.90;;;;;;5028632;28;20652;-69
2023/04/18 00:34:39;;;;;;;10.37;6.43;;;;;;;;;;5024928;28;20245;-68
2023/04/18 00:37:05;;;;;;;11.00;7.03;;;9.60;99.90;;;;;;5027771;28;20241;-69
2023/04/18 00:39:32;;;;;;;11.80;6.37;;;9.70;99.90;;;;;;5025879;28;20290;-69
2023/04/18 00:41:58;;;;;;;14.10;7.00;;;9.80;99.90;;;;;;5026606;28;20271;-70
2023/04/18 00:44:23;;;;;;;13.93;7.20;;;10.80;99.90;;;;;;5026943;28;20641;-70
2023/04/18 00:46:50;;;;;;;12.10;6.83;;;9.20;99.90;;;;;;5025339;28;20274;-70
2023/04/18 00:49:15;;;;;;;14.43;7.70;;;9.40;99.90;;;;;;5027465;28;20182;-70
2023/04/18 00:51:41;;;;;;;10.53;7.57;;;9.50;99.90;;;;;;5024531;28;20178;-70
2023/04/18 00:54:08;;;;;;;12.77;8.17;;;9.40;99.90;;;;;;5028337;28;20264;-70
2023/04/18 00:56:35;;;;;;;14.03;8.73;;;9.30;99.90;;;;;;5023713;28;20253;-70
2023/04/18 00:59:00;;;;;;;12.37;7.87;;;9.00;99.90;;;;;;5028280;28;20197;-70
2023/04/18 01:01:26;;;;;;;14.90;7.53;;;9.80;99.90;;;;;;5023890;28;20174;-70
2023/04/18 01:03:52;;;;;;;16.47;8.80;;;;;;;;;;5027675;28;20186;-70
2023/04/18 01:06:18;;;;;;;14.90;8.33;;;9.10;99.90;;;;;;5024859;28;20226;-69
2023/04/18 01:08:44;;;;;;;16.93;9.27;;;;;;;;;;5026492;28;20581;-69
2023/04/18 01:11:10;;;;;;;19.63;9.80;;;8.80;99.90;;;;;;5026105;28;20266;-70
2023/04/18 01:13:35;;;;;;;15.87;9.80;;;8.90;99.90;;;;;;5025232;28;20217;-69
2023/04/18 01:16:01;;;;;;;18.17;9.80;;;8.90;99.90;;;;;;5027082;28;20189;-68
2023/04/18 01:18:30;;;;;;;17.93;10.03;;;8.80;99.90;;;;;;5024171;28;20238;-69
2023/04/18 01:20:58;;;;;;;15.20;9.67;;;8.80;99.90;;;;;;5027087;28;20182;-69
2023/04/18 01:23:24;;;;;;;13.10;9.13;;;8.60;99.90;;;;;;5026931;28;20264;-68
2023/04/18 01:25:50;;;;;;;15.80;10.17;;;;;;;;;;5027718;28;20174;-69
2023/04/18 01:28:17;;;;;;;15.63;9.97;;;8.70;99.90;;;;;;5022960;28;20178;-68
2023/04/18 01:30:43;;;;;;;15.70;9.87;;;9.00;99.90;;;;;;5027573;28;20211;-69
2023/04/18 01:33:08;;;;;;;16.07;10.30;;;8.60;99.90;;;;;;5022658;28;20706;-69
2023/04/18 01:35:34;;;;;;;20.10;11.30;;;8.70;99.90;;;;;;5027013;28;20178;-71
2023/04/18 01:38:00;;;;;;;18.50;10.93;;;8.50;99.90;;;;;;5024935;28;20691;-69
2023/04/18 01:40:26;;;;;;;22.33;11.13;;;;;;;;;;5007887;28;20734;-69
2023/04/18 01:42:52;;;;;;;17.77;11.53;;;8.60;99.90;;;;;;5025598;28;20699;-69
2023/04/18 01:45:18;;;;;;;21.43;12.47;;;8.50;99.90;;;;;;5024438;28;20180;-68
2023/04/18 01:47:45;;;;;;;19.83;11.40;;;8.50;99.90;;;;;;5026413;28;20207;-69
2023/04/18 01:50:11;;;;;;;23.27;12.60;;;8.50;99.90;;;;;;5023343;28;20720;-68
2023/04/18 01:52:37;;;;;;;22.50;12.57;;;8.20;99.90;;;;;;5026718;28;20190;-69
2023/04/18 01:55:03;;;;;;;22.30;12.47;;;8.40;99.90;;;;;;5022944;28;20283;-68
2023/04/18 01:57:29;;;;;;;19.53;12.53;;;8.30;99.90;;;;;;5027015;28;20178;-69
2023/04/18 01:59:55;;;;;;;20.47;12.67;;;8.40;99.90;;;;;;5022490;28;20178;-69
2023/04/18 02:02:21;;;;;;;25.17;12.93;;;8.00;99.90;;;;;;5027010;28;20560;-68
2023/04/18 02:04:46;;;;;;;22.50;13.50;;;8.30;99.90;;;;;;5023175;28;20186;-71
2023/04/18 02:07:12;;;;;;;25.07;14.20;;;8.20;99.90;;;;;;5025833;28;20221;-70
2023/04/18 02:09:37;;;;;;;23.63;14.33;;;8.20;99.90;;;;;;5024735;28;20276;-70
2023/04/18 02:12:03;;;;;;;28.03;15.20;;;8.50;99.90;;;;;;5024710;28;20657;-70
2023/04/18 02:14:32;;;;;;;25.23;15.60;;;8.50;99.90;;;;;;5025997;28;20181;-71
2023/04/18 02:16:58;;;;;;;23.73;15.07;;;8.50;99.90;;;;;;5023545;28;20192;-70
2023/04/18 02:19:24;;;;;;;28.20;16.33;;;8.70;99.90;;;;;;5025675;28;20169;-68
2023/04/18 02:21:50;;;;;;;30.90;16.87;;;8.80;99.90;;;;;;5023003;28;20202;-70
2023/04/18 02:24:16;;;;;;;29.13;17.13;;;8.90;99.90;;;;;;5026764;28;20752;-70
2023/04/18 02:26:42;;;;;;;30.30;17.87;;;8.70;99.90;;;;;;5022034;28;20265;-70
2023/04/18 02:29:08;;;;;;;30.10;17.90;;;8.80;99.90;;;;;;5026500;28;20182;-70
2023/04/18 02:31:35;;;;;;;29.77;18.37;;;8.80;99.90;;;;;;5022807;28;20190;-70
2023/04/18 02:34:01;;;;;;;29.20;18.53;;;8.90;99.90;;;;;;5025754;28;20182;-70
2023/04/18 02:36:27;;;;;;;32.60;19.07;;;8.90;99.90;;;;;;5023678;28;20190;-70
2023/04/18 02:38:53;;;;;;;33.20;19.13;;;10.30;99.90;;;;;;5024802;28;20193;-69
2023/04/18 02:41:19;;;;;;;33.73;19.23;;;9.00;99.90;;;;;;5024820;28;20173;-69
2023/04/18 02:43:45;;;;;;;29.40;18.40;;;8.90;99.90;;;;;;5022955;28;20243;-70
2023/04/18 02:46:11;;;;;;;33.13;18.80;;;8.90;99.90;;;;;;5025469;28;20237;-70
2023/04/18 02:48:36;;;;;;;30.00;17.17;;;8.70;99.90;;;;;;5022382;28;20525;-69
2023/04/18 02:51:03;;;;;;;29.23;18.37;;;8.80;99.90;;;;;;5026146;28;20178;-70
2023/04/18 02:53:29;;;;;;;34.53;18.93;;;8.80;99.90;;;;;;5021825;28;20216;-69
2023/04/18 02:55:55;;;;;;;32.67;18.27;;;9.00;99.90;;;;;;5026240;28;20522;-70
2023/04/18 02:58:20;;;;;;;29.90;18.63;;;8.80;99.90;;;;;;5022133;28;20198;-70
2023/04/18 03:00:46;;;;;;;28.30;18.13;;;8.90;99.90;;;;;;5025636;28;20174;-70
2023/04/18 03:03:11;;;;;;;27.30;17.53;;;9.00;99.90;;;;;;5023301;28;20257;-70
2023/04/18 03:05:38;;;;;;;30.53;16.87;;;7.90;99.90;;;;;;5023969;28;20217;-68
2023/04/18 03:08:04;;;;;;;28.60;18.20;;;9.30;99.90;;;;;;5024516;28;20184;-68
2023/04/18 03:10:30;;;;;;;28.10;17.13;;;9.10;99.90;;;;;;5022972;28;20178;-68
2023/04/18 03:12:55;;;;;;;27.77;17.73;;;9.20;99.90;;;;;;5025195;28;20261;-68
2023/04/18 03:15:21;;;;;;;31.37;17.73;;;9.00;99.90;;;;;;5022184;28;20187;-68
2023/04/18 03:17:47;;;;;;;29.47;17.70;;;9.20;99.90;;;;;;5025871;28;20182;-69
2023/04/18 03:20:13;;;;;;;29.53;17.80;;;9.30;99.90;;;;;;5021376;28;20182;-68
2023/04/18 03:22:39;;;;;;;28.60;17.40;;;9.50;99.90;;;;;;5025941;28;20205;-69
2023/04/18 03:25:05;;;;;;;29.53;17.30;;;9.40;99.90;;;;;;5021945;28;20174;-69
2023/04/18 03:27:31;;;;;;;28.40;18.20;;;9.00;99.90;;;;;;5025384;28;20193;-68
2023/04/18 03:29:57;;;;;;;28.60;17.47;;;9.10;99.90;;;;;;5022983;28;20253;-69
2023/04/18 03:32:22;;;;;;;29.40;18.33;;;9.60;99.90;;;;;;5024172;28;20186;-69
2023/04/18 03:34:50;;;;;;;26.73;17.13;;;9.00;99.90;;;;;;5024210;28;20189;-69
2023/04/18 03:37:15;;;;;;;26.97;17.07;;;8.90;99.90;;;;;;5023021;28;20705;-68
2023/04/18 03:39:41;;;;;;;30.37;18.07;;;8.90;99.90;;;;;;5025022;28;20276;-68
2023/04/18 03:42:06;;;;;;;27.47;17.53;;;9.00;99.90;;;;;;5021821;28;20723;-68
2023/04/18 03:44:32;;;;;;;27.33;16.77;;;8.80;99.90;;;;;;5025684;28;20200;-68
2023/04/18 03:46:58;;;;;;;30.97;17.67;;;8.70;99.90;;;;;;5021247;28;20179;-69
2023/04/18 03:49:23;;;;;;;27.10;16.87;;;8.60;99.90;;;;;;5025839;28;20190;-69
2023/04/18 03:51:49;;;;;;;25.70;16.33;;;8.70;99.90;;;;;;5021599;28;20210;-70
2023/04/18 03:54:15;;;;;;;27.83;17.53;;;8.70;99.90;;;;;;5025238;28;20186;-69
2023/04/18 03:56:40;;;;;;;27.70;17.33;;;8.90;99.90;;;;;;5027421;28;20700;-69
2023/04/18 03:59:06;;;;;;;27.97;17.27;;;7.70;99.90;;;;;;5009927;28;20170;-69
2023/04/18 04:01:32;;;;;;;29.37;17.03;;;8.60;99.90;;;;;;5027595;28;20182;-69
2023/04/18 04:04:00;;;;;;;30.87;17.70;;;8.60;99.90;;;;;;5026171;28;20178;-70
2023/04/18 04:06:26;;;;;;;28.63;17.83;;;8.60;99.90;;;;;;5028095;28;20693;-69
2023/04/18 04:08:52;;;;;;;29.30;17.43;;;8.70;99.90;;;;;;5025262;28;20661;-68
2023/04/18 04:11:17;;;;;;;28.03;17.20;;;8.70;99.90;;;;;;5028777;28;20185;-69
2023/04/18 04:13:43;;;;;;;26.47;17.03;;;;;;;;;;5025057;28;20651;-69
2023/04/18 04:16:09;;;;;;;29.23;17.57;;;8.40;99.90;;;;;;5028979;28;20178;-69
2023/04/18 04:18:35;;;;;;;31.53;17.63;;;8.60;99.90;;;;;;5024493;28;20285;-69
2023/04/18 04:21:01;;;;;;;28.83;17.90;;;8.60;99.90;;;;;;5028771;28;20284;-69
2023/04/18 04:23:27;;;;;;;26.50;16.70;;;8.50;99.90;;;;;;5025697;28;20359;-69
2023/04/18 04:25:54;;;;;;;27.27;16.77;;;8.60;99.90;;;;;;5027399;28;20699;-69
2023/04/18 04:28:21;;;;;;;31.90;17.53;;;;;;;;;;5026586;28;20317;-69
2023/04/18 04:30:49;;;;;;;30.27;17.33;;;8.50;99.90;;;;;;5026419;28;20208;-70
2023/04/18 04:33:18;;;;;;;29.50;16.87;;;8.70;99.90;;;;;;5027277;28;20194;-69
2023/04/18 04:35:45;;;;;;;27.50;17.20;;;8.50;99.90;;;;;;5025885;28;20169;-69
2023/04/18 04:38:11;;;;;;;33.27;17.40;;;8.40;99.90;;;;;;5027575;28;20643;-69
2023/04/18 04:40:36;;;;;;;31.17;17.33;;;8.50;99.90;;;;;;5024768;28;20202;-69
2023/04/18 04:43:02;;;;;;;31.73;17.57;;;8.50;99.90;;;;;;5028699;28;20233;-69
2023/04/18 04:45:28;;;;;;;29.60;17.27;;;8.30;99.90;;;;;;5027135;28;20185;-69
2023/04/18 04:47:53;;;;;;;29.97;17.93;;;8.50;99.90;;;;;;5028401;28;20181;-69
2023/04/18 04:50:19;;;;;;;29.67;17.97;;;8.50;99.90;;;;;;5024272;28;20237;-68
2023/04/18 04:52:45;;;;;;;32.73;17.83;;;8.50;99.90;;;;;;5027727;28;20570;-69
2023/04/18 04:55:10;;;;;;;28.20;18.07;;;8.50;99.90;;;;;;5007799;28;20616;-69
2023/04/18 04:57:36;;;;;;;28.83;17.20;;;8.50;99.90;;;;;;5026066;28;20178;-68
2023/04/18 05:00:04;;;;;;;35.70;17.93;;;8.50;99.90;;;;;;5026574;28;20182;-69
2023/04/18 05:02:30;;;;;;;32.37;17.90;;;;;;;;;;5007533;28;20254;-69
2023/04/18 05:04:55;;;;;;;29.33;17.60;;;8.50;99.90;;;;;;5026998;28;20182;-68
2023/04/18 05:07:21;;;;;;;30.73;18.00;;;8.60;99.90;;;;;;5024125;28;20202;-69
2023/04/18 05:09:46;;;;;;;32.40;18.30;;;8.60;99.90;;;;;;5027844;28;20189;-69
2023/04/18 05:12:12;;;;;;;30.67;18.20;;;8.50;99.90;;;;;;5023317;28;20520;-69
2023/04/18 05:14:38;;;;;;;29.87;17.90;;;8.50;99.90;;;;;;5027906;28;20169;-69
2023/04/18 05:17:03;;;;;;;32.23;18.23;;;8.40;99.90;;;;;;5023938;28;20544;-69
2023/04/18 05:19:29;;;;;;;28.63;17.97;;;;;;;;;;5027153;28;20169;-68
2023/04/18 05:21:55;;;;;;;32.43;18.37;;;8.50;99.90;;;;;;5025097;28;20214;-68
2023/04/18 05:24:20;;;;;;;31.00;18.00;;;8.60;99.90;;;;;;5025781;28;20186;-68
2023/04/18 05:26:46;;;;;;;28.83;18.37;;;8.50;99.90;;;;;;5026406;28;20632;-69
2023/04/18 05:29:12;;;;;;;33.63;18.60;;;8.50;99.90;;;;;;5024207;28;20190;-68
2023/04/18 05:31:37;;;;;;;27.90;18.17;;;9.80;99.90;;;;;;5026681;28;20181;-69
2023/04/18 05:34:03;;;;;;;30.50;17.90;;;;;;;;;;5023840;28;20601;-69
2023/04/18 05:36:29;;;;;;;31.10;18.40;;;8.30;99.90;;;;;;5027523;28;20688;-68
2023/04/18 05:38:54;;;;;;;33.87;18.03;;;8.60;99.90;;;;;;5022871;28;20189;-68
2023/04/18 05:41:20;;;;;;;29.80;17.40;;;8.70;99.90;;;;;;5027449;28;20173;-68
2023/04/18 05:43:46;;;;;;;30.23;18.83;;;8.60;99.90;;;;;;5023528;28;20301;-69
2023/04/18 05:46:12;;;;;;;30.77;18.23;;;;;;;;;;5026400;28;20198;-70
2023/04/18 05:48:37;;;;;;;28.70;16.97;;;8.70;99.90;;;;;;5024884;28;20693;-69
2023/04/18 05:51:04;;;;;;;35.30;18.93;;;8.60;99.90;;;;;;5025036;28;20206;-69
2023/04/18 05:53:30;;;;;;;37.07;17.70;;;8.70;99.90;;;;;;5025646;28;20178;-70
2023/04/18 05:55:57;;;;;;;30.60;17.53;;;8.70;99.90;;;;;;5023846;28;20178;-69
2023/04/18 05:58:23;;;;;;;31.07;18.57;;;8.70;99.90;;;;;;5026033;28;20648;-69
2023/04/18 06:00:48;;;;;;;31.70;16.53;;;8.80;99.90;;;;;;5023194;28;20183;-69
2023/04/18 06:03:14;;;;;;;34.37;17.73;;;8.70;99.90;;;;;;5026902;28;20209;-69
2023/04/18 06:05:40;;;;;;;31.03;17.60;;;9.00;99.90;;;;;;5020767;28;20248;-69
2023/04/18 06:08:06;;;;;;;36.77;18.70;;;8.90;99.90;;;;;;5022139;28;20268;-69
2023/04/18 06:10:32;;;;;;;34.70;18.03;;;8.90;99.90;;;;;;5024909;28;20607;-69
2023/04/18 06:12:58;;;;;;;33.53;17.27;;;8.90;99.90;;;;;;5026963;28;20186;-69
2023/04/18 06:15:23;;;;;;;31.20;17.63;;;8.90;99.90;;;;;;5024764;28;20174;-69
2023/04/18 06:17:49;;;;;;;31.63;17.97;;;9.00;99.90;;;;;;5006070;28;20196;-69
2023/04/18 06:20:15;;;;;;;32.77;18.40;;;9.00;99.90;;;;;;5025810;28;20558;-69
2023/04/18 06:22:41;;;;;;;35.37;19.10;;;9.10;99.90;;;;;;5022832;28;20210;-69
2023/04/18 06:25:08;;;;;;;34.17;18.07;;;9.30;99.90;;;;;;5026026;28;20192;-69
2023/04/18 06:27:34;;;;;;;29.93;17.60;;;9.00;99.90;;;;;;5022817;28;20200;-69
2023/04/18 06:30:00;;;;;;;33.63;17.27;;;9.10;99.90;;;;;;5026540;28;20209;-69
2023/04/18 06:32:26;;;;;;;33.43;18.37;;;9.10;99.90;;;;;;5021796;28;20209;-69
2023/04/18 06:34:51;;;;;;;34.00;17.73;;;9.10;99.90;;;;;;5026412;28;20189;-69
2023/04/18 06:37:17;;;;;;;32.63;17.67;;;9.30;99.90;;;;;;5023100;28;20178;-69
2023/04/18 06:39:43;;;;;;;32.70;17.87;;;9.40;99.90;;;;;;5024979;28;20214;-69
2023/04/18 06:42:09;;;;;;;32.70;18.13;;;9.30;99.90;;;;;;5024148;28;20209;-69
2023/04/18 06:44:35;;;;;;;35.60;19.50;;;9.50;99.90;;;;;;5023828;28;20274;-69
2023/04/18 06:47:01;;;;;;;34.67;19.10;;;9.50;99.90;;;;;;5025428;28;20292;-69
2023/04/18 06:49:26;;;;;;;31.97;19.30;;;9.80;99.90;;;;;;5022671;28;20194;-69
2023/04/18 06:51:52;;;;;;;37.30;17.90;;;9.50;99.90;;;;;;5025752;28;20185;-69
2023/04/18 06:54:18;;;;;;;38.67;20.10;;;12.60;99.90;;;;;;5022114;28;20309;-69
2023/04/18 06:56:44;;;;;;;33.87;19.07;;;;;;;;;;5026125;28;20409;-69
2023/04/18 06:59:10;;;;;;;32.50;17.90;;;9.60;99.90;;;;;;5021480;28;20186;-68
2023/04/18 07:01:42;;;;;;;33.73;18.80;;;9.70;99.90;;;;;;5026046;28;20185;-69
2023/04/18 07:04:08;;;;;;;36.50;19.93;;;9.90;99.90;;;;;;5021392;28;20653;-68
2023/04/18 07:06:35;;;;;;;36.33;20.23;;;9.90;99.90;;;;;;5028827;28;20288;-69
2023/04/18 07:09:01;;;;;;;33.30;18.10;;;9.60;99.90;;;;;;5022711;28;20177;-69
2023/04/18 07:11:27;;;;;;;34.63;19.10;;;9.90;99.90;;;;;;5024683;28;20660;-69
2023/04/18 07:13:53;;;;;;;33.50;19.63;;;9.90;99.90;;;;;;5023614;28;20225;-68
2023/04/18 07:16:19;;;;;;;34.17;18.77;;;9.80;99.90;;;;;;5005760;28;20278;-69
2023/04/18 07:18:45;;;;;;;37.13;19.77;;;10.00;99.90;;;;;;5024886;28;20181;-69
2023/04/18 07:21:10;;;;;;;42.40;19.70;;;10.00;99.90;;;;;;5023825;28;20189;-69
2023/04/18 07:23:36;;;;;;;35.77;18.77;;;9.90;99.90;;;;;;5024941;28;20237;-69
2023/04/18 07:26:04;;;;;;;35.33;18.57;;;10.20;99.90;;;;;;5021909;28;20665;-69
2023/04/18 07:28:31;;;;;;;32.27;17.50;;;10.00;99.90;;;;;;5026016;28;20181;-69
2023/04/18 07:30:57;;;;;;;33.67;18.30;;;10.00;99.90;;;;;;5022896;28;20170;-69
2023/04/18 07:33:23;;;;;;;33.00;18.23;;;10.10;99.90;;;;;;5029625;28;20170;-69
2023/04/18 07:35:50;;;;;;;33.50;17.00;;;10.10;99.90;;;;;;5025584;28;20649;-71
2023/04/18 07:38:16;;;;;;;30.97;15.57;;;10.00;99.90;;;;;;5028892;28;20181;-70
2023/04/18 07:40:43;;;;;;;29.90;16.33;;;10.10;99.90;;;;;;5026959;28;20551;-69
2023/04/18 07:43:09;;;;;;;28.17;16.30;;;10.20;99.90;;;;;;5009989;28;20717;-70
2023/04/18 07:45:37;;;;;;;27.67;14.20;;;10.30;99.90;;;;;;5027615;28;20260;-69
2023/04/18 07:48:03;;;;;;;28.37;14.27;;;10.30;99.90;;;;;;5026788;28;20177;-69
2023/04/18 07:50:29;;;;;;;30.63;14.57;;;10.30;99.90;;;;;;5028465;28;20181;-69
2023/04/18 07:52:55;;;;;;;27.60;14.87;;;10.20;99.90;;;;;;5029272;28;20217;-70
2023/04/18 07:55:21;;;;;;;27.97;14.27;;;;;;;;;;5028723;28;20170;-69
2023/04/18 07:57:49;;;;;;;23.43;13.60;;;10.60;99.90;;;;;;5025185;28;20189;-69
2023/04/18 08:00:18;;;;;;;25.23;14.20;;;10.80;99.90;;;;;;5028946;28;20209;-70
2023/04/18 08:02:44;;;;;;;24.70;13.33;;;10.80;99.90;;;;;;5024790;28;20218;-69
2023/04/18 08:05:10;;;;;;;23.27;13.53;;;10.90;99.90;;;;;;5028958;28;20174;-69
2023/04/18 08:07:36;;;;;;;22.17;12.10;;;11.00;99.90;;;;;;5024701;28;20269;-70
2023/04/18 08:10:02;;;;;;;22.67;13.43;;;11.10;99.90;;;;;;5028725;28;20648;-70
2023/04/18 08:12:28;;;;;;;22.03;13.37;;;9.00;99.90;;;;;;5025926;28;20185;-70
2023/04/18 08:14:53;;;;;;;26.17;12.63;;;11.20;99.90;;;;;;5009797;28;20177;-70
2023/04/18 08:17:19;;;;;;;21.80;13.53;;;11.10;99.90;;;;;;5027481;28;20178;-71
2023/04/18 08:19:45;;;;;;;26.00;13.30;;;11.30;99.90;;;;;;5025499;28;20179;-71
2023/04/18 08:22:10;;;;;;;26.43;12.70;;;11.60;99.90;;;;;;5025970;28;20204;-70
2023/04/18 08:24:37;;;;;;;25.17;13.37;;;11.50;99.90;;;;;;5025100;28;20278;-70
2023/04/18 08:27:03;;;;;;;23.60;12.33;;;11.90;99.90;;;;;;5028743;28;20551;-69
2023/04/18 08:29:28;;;;;;;24.40;13.50;;;12.00;99.90;;;;;;5023978;28;20253;-69
2023/04/18 08:31:54;;;;;;;20.43;12.00;;;11.90;99.90;;;;;;5028581;28;20178;-69
2023/04/18 08:34:20;;;;;;;24.47;13.37;;;12.10;99.90;;;;;;5024458;28;20185;-69
2023/04/18 08:36:45;;;;;;;22.53;13.33;;;12.10;99.90;;;;;;5027920;28;20186;-69
2023/04/18 08:39:11;;;;;;;20.03;12.57;;;12.00;99.90;;;;;;5025662;28;20193;-70
2023/04/18 08:41:39;;;;;;;26.27;12.63;;;12.40;99.90;;;;;;5026116;28;20264;-69
2023/04/18 08:44:05;;;;;;;21.98;12.20;;;12.80;99.90;;;;;;5026399;28;20500;-69
2023/04/18 08:46:35;;;;;;;21.80;12.17;;;13.90;99.90;;;;;;5008069;28;20196;-70
2023/04/18 08:49:05;;;;;;;23.33;12.73;;;15.40;99.90;;;;;;5027118;28;20174;-70
2023/04/18 08:51:31;;;;;;;19.27;11.57;;;16.50;99.90;;;;;;5025562;28;20227;-70
2023/04/18 08:54:03;;;;;;;18.30;12.05;;;16.70;99.90;;;;;;5027294;28;20189;-70
2023/04/18 08:56:29;;;;;;;22.08;12.50;;;17.50;99.90;;;;;;5024966;28;20186;-71
2023/04/18 08:58:58;;;;;;;19.33;12.60;;;17.10;99.90;;;;;;5027381;28;20188;-70
2023/04/18 09:01:51;;;;;;;17.90;11.90;;;17.50;99.90;;;;;;5023986;28;20230;-70
2023/04/18 09:04:33;;;;;;;18.70;12.20;;;17.90;99.90;;;;;;5025205;28;20201;-70
2023/04/18 09:06:59;;;;;;;18.58;11.32;;;18.80;99.90;;;;;;5023149;28;20230;-72
2023/04/18 09:09:26;;;;;;;18.58;11.82;;;18.60;99.90;;;;;;5024010;28;20190;-72
2023/04/18 09:12:07;;;;;;;18.58;12.73;;;18.20;99.90;;;;;;5027134;28;20190;-72
2023/04/18 09:14:35;;;;;;;18.75;12.00;;;18.30;99.90;;;;;;5022942;28;20179;-72
2023/04/18 09:17:01;;;;;;;15.65;11.77;;;19.30;99.90;;;;;;5027934;28;20192;-72
2023/04/18 09:19:27;;;;;;;17.95;11.32;;;19.50;99.90;;;;;;5023743;28;20553;-71
2023/04/18 09:22:01;;;;;;;17.50;11.88;;;19.10;99.90;;;;;;5030505;28;20700;-70
2023/04/18 09:24:27;;;;;;;17.35;11.95;;;18.10;99.90;;;;;;5023542;28;20174;-70
2023/04/18 09:26:55;;;;;;;20.77;12.05;;;17.70;99.90;;;;;;5027209;28;20185;-72
2023/04/18 09:29:25;;;;;;;18.00;11.63;;;17.20;99.90;;;;;;5024643;28;20450;-72
2023/04/18 09:32:00;;;;;;;19.00;11.75;;;17.40;99.90;;;;;;5026589;28;20182;-71
2023/04/18 09:34:27;;;;;;;19.20;11.88;;;18.00;99.90;;;;;;5023776;28;20225;-71
2023/04/18 09:37:09;;;;;;;18.08;11.23;;;18.50;99.90;;;;;;5026626;28;20173;-71
2023/04/18 09:39:37;;;;;;;17.67;11.25;;;18.50;99.90;;;;;;5022975;28;20186;-71
2023/04/18 09:42:03;;;;;;;17.40;11.60;;;17.30;99.90;;;;;;5022428;28;20206;-72
2023/04/18 09:44:28;;;;;;;18.58;11.20;;;17.80;99.90;;;;;;5023625;28;20182;-71
2023/04/18 09:46:54;;;;;;;21.23;11.57;;;17.50;99.90;;;;;;5008545;28;20227;-71
2023/04/18 09:49:21;;;;;;;19.70;12.23;;;17.00;99.90;;;;;;5024616;28;20206;-69
2023/04/18 09:51:50;;;;;;;19.70;11.68;;;17.00;99.90;;;;;;5025034;28;20189;-69
2023/04/18 09:54:16;;;;;;;17.75;11.98;;;16.40;99.90;;;;;;5024864;28;20177;-70
2023/04/18 09:56:49;;;;;;;24.60;11.63;;;16.40;99.90;;;;;;5018830;28;20170;-70
2023/04/18 09:59:22;;;;;;;19.50;11.70;;;17.10;99.90;;;;;;5025926;28;20268;-70
2023/04/18 10:01:49;;;;;;;22.70;11.75;;;17.90;99.90;;;;;;5024514;28;20174;-71
2023/04/18 10:04:16;;;;;;;18.30;11.13;;;18.80;99.90;;;;;;5025899;28;20189;-71
2023/04/18 10:06:44;;;;;;;20.17;11.13;;;19.40;99.90;;;;;;5023206;28;20739;-71
2023/04/18 10:09:11;;;;;;;15.75;11.27;;;19.70;99.90;;;;;;5024645;28;20185;-71
2023/04/18 10:11:37;;;;;;;14.20;10.57;;;20.20;99.90;;;;;;5022968;28;20186;-72
2023/04/18 10:14:10;;;;;;;15.82;10.68;;;20.40;99.90;;;;;;5026684;28;20185;-70
2023/04/18 10:16:36;;;;;;;15.75;11.30;;;19.70;99.90;;;;;;5022786;28;20256;-71
2023/04/18 10:19:21;;;;;;;18.42;11.25;;;18.10;99.90;;;;;;5026597;28;20257;-72
2023/04/18 10:21:51;;;;;;;18.55;11.77;;;18.60;99.90;;;;;;5023232;28;20186;-72
2023/04/18 10:24:54;;;;;;;14.30;11.02;;;18.80;99.90;;;;;;5025592;28;20182;-72
2023/04/18 10:27:48;;;;;;;16.08;11.45;;;19.80;99.90;;;;;;5018096;28;20193;-71
2023/04/18 10:30:17;;;;;;;17.38;11.77;;;20.70;99.90;;;;;;5023666;28;20181;-72
2023/04/18 10:32:45;;;;;;;23.85;11.85;;;21.60;99.90;;;;;;5025376;28;20264;-72
2023/04/18 10:35:11;;;;;;;21.75;11.38;;;;;;;;;;5025961;28;20223;-71
2023/04/18 10:37:50;;;;;;;18.60;11.55;;;20.90;99.90;;;;;;5026017;28;20330;-72
2023/04/18 10:40:16;;;;;;;16.15;11.82;;;21.00;99.90;;;;;;5023353;28;20177;-72
2023/04/18 10:42:51;;;;;;;15.77;11.50;;;20.70;99.90;;;;;;5025371;28;20216;-72
2023/04/18 10:45:24;;;;;;;15.02;11.20;;;21.50;99.90;;;;;;5022915;28;20185;-71
2023/04/18 10:47:50;;;;;;;18.10;11.07;;;22.00;99.90;;;;;;5025235;28;20177;-72
2023/04/18 10:50:16;;;;;;;15.23;11.10;;;22.80;99.90;;;;;;5022656;28;20178;-72
2023/04/18 10:52:42;;;;;;;16.00;11.45;;;22.50;99.90;;;;;;5025575;28;20189;-72
2023/04/18 10:55:24;;;;;;;16.80;11.55;;;22.40;99.90;;;;;;5025163;28;20226;-71
2023/04/18 10:57:54;;;;;;;17.98;10.95;;;22.70;99.90;;;;;;5025066;28;20178;-72
2023/04/18 11:00:22;;;;;;;13.25;10.57;;;23.90;99.90;;;;;;5022955;28;20181;-72
2023/04/18 11:02:56;;;;;;;17.02;10.80;;;23.10;99.90;;;;;;5025012;28;20237;-71
2023/04/18 11:05:26;;;;;;;17.60;11.27;;;22.40;99.90;;;;;;5027416;28;20241;-72
2023/04/18 11:07:53;;;;;;;14.35;10.38;;;22.50;99.90;;;;;;5031397;28;20181;-71
2023/04/18 11:10:24;;;;;;;17.00;10.70;;;23.10;99.90;;;;;;5028989;28;20256;-71
2023/04/18 11:12:50;;;;;;;15.00;10.18;;;23.00;80.90;;;;;;5031306;28;20178;-72
2023/04/18 11:15:20;;;;;;;20.63;10.43;;;22.90;85.00;;;;;;5028514;28;20180;-72
2023/04/18 11:18:01;;;;;;;10.80;9.07;;;23.10;77.10;;;;;;5031811;28;20239;-72
2023/04/18 11:20:27;;;;;;;14.80;10.45;;;23.10;72.30;;;;;;5029607;28;20193;-72
2023/04/18 11:22:53;;;;;;;13.25;10.23;;;22.00;58.20;;;;;;5029388;28;20213;-71
2023/04/18 11:25:22;;;;;;;13.05;9.45;;;22.80;67.20;;;;;;5028489;28;20237;-71
2023/04/18 11:27:53;;;;;;;13.73;8.88;;;23.60;66.30;;;;;;5031929;28;20181;-72
2023/04/18 11:30:19;;;;;;;15.00;8.73;;;23.80;32.00;;;;;;5031929;28;20170;-72
2023/04/18 11:32:45;;;;;;;11.80;8.30;;;23.50;25.10;;;;;;5032566;28;20184;-72
2023/04/18 11:35:12;;;;;;;12.70;8.23;;;23.30;11.00;;;;;;5027700;28;20645;-71
2023/04/18 11:37:39;;;;;;;14.27;8.60;;;22.10;1.00;;;;;;5032301;28;20177;-71
2023/04/18 11:40:07;;;;;;;18.40;8.20;;;20.90;1.00;;;;;;5028040;28;20178;-70
2023/04/18 11:42:34;;;;;;;13.52;9.23;;;20.20;4.70;;;;;;5027290;28;20209;-70
2023/04/18 11:45:01;;;;;;;12.98;9.23;;;19.90;16.20;;;;;;5028778;28;20675;-70
2023/04/18 11:47:32;;;;;;;16.08;8.90;;;19.90;32.10;;;;;;5031360;28;20174;-70
2023/04/18 11:50:06;;;;;;;12.10;8.10;;;20.00;30.50;;;;;;5028925;28;20261;-71
2023/04/18 11:52:33;;;;;;;12.15;7.72;;;21.20;29.70;;;;;;5031914;28;20189;-70
2023/04/18 11:55:20;;;;;;;13.38;8.35;;;22.00;28.60;;;;;;5028917;28;20257;-71
2023/04/18 11:57:53;;;;;;;11.68;8.38;;;21.10;19.80;;;;;;5028424;28;20185;-71
2023/04/18 12:00:30;;;;;;;13.95;8.60;;;19.70;20.50;;;;;;5034363;28;20177;-71
2023/04/18 12:02:57;;;;;;;17.60;8.57;;;19.10;43.60;;;;;;5031618;28;20213;-70
2023/04/18 12:05:28;;;;;;;13.00;8.05;;;19.10;50.00;;;;;;5028298;28;20216;-71
2023/04/18 12:07:55;;;;;;;14.57;8.05;;;19.40;92.20;;;;;;5031944;28;20188;-70
2023/04/18 12:10:20;;;;;;;15.30;8.70;;;19.80;79.00;;;;;;5030631;28;20644;-71
2023/04/18 12:12:50;;;;;;;12.45;8.30;;;19.30;62.50;;;;;;5032000;28;20197;-71
2023/04/18 12:15:17;;;;;;;14.35;8.80;;;19.30;79.70;;;;;;5027063;28;20175;-70
2023/04/18 12:17:44;;;;;;;13.35;8.57;;;18.80;84.70;;;;;;5028067;28;20174;-71
2023/04/18 12:20:12;;;;;;;11.95;8.57;;;18.40;99.90;;;;;;5025374;28;20173;-71
2023/04/18 12:22:48;;;;;;;16.88;8.75;;;19.00;99.90;;;;;;5028458;28;20236;-71
2023/04/18 12:25:21;;;;;;;12.68;8.65;;;19.20;99.90;;;;;;5024574;28;20174;-71
2023/04/18 12:28:00;;;;;;;11.77;8.00;;;19.30;97.50;;;;;;5032102;28;20227;-71
2023/04/18 12:30:32;;;;;;;28.33;8.32;;;18.90;99.90;;;;;;5024558;28;20189;-71
2023/04/18 12:33:00;;;;;;;11.20;7.25;;;18.70;99.90;;;;;;5028472;28;20269;-70
2023/04/18 12:35:27;;;;;;;14.30;8.35;;;18.30;99.90;;;;;;5022751;28;20206;-71
2023/04/18 12:37:55;;;;;;;18.67;8.73;;;18.10;99.90;;;;;;5028518;28;20212;-71